KLGA

LaGuardia Airport

Airport
ICAO code
KLGA
IATA Code
LGA
Summary
ICAO Region
NAM
ICAO Territory
Location

East Elmhurst, New York

Serving
New York
Elevation
21 ft
Coordinates
40° 46' 38" N , 73° 52' 21" W
KCC
Airport BS
Bird Strike
Airport RE
Engineered Materials Arresting System
Metar
KLGA 040651Z 05003KT 10SM FEW050 09/05 A3028 RMK AO2 SLP253 T00940050

Airport serving the city of New York, NY, USA.

Runways

Designator Length Width Surface Rops
4/22 2134 46 ASP Yes/Yes
13/31 2134 46 ASP Yes/Yes

SKYbrary Partners:

Safety knowledge contributed by: